createdAt,value
2023-07-17T00:00:17.941Z,3.80
2023-07-17T00:02:45.529Z,3.97
2023-07-17T00:05:12.868Z,4.20
2023-07-17T00:07:40.974Z,4.40
2023-07-17T00:10:09.264Z,4.57
2023-07-17T00:12:36.552Z,3.77
2023-07-17T00:15:07.283Z,3.90
2023-07-17T00:17:35.729Z,4.33
2023-07-17T00:20:06.844Z,4.03
2023-07-17T00:22:35.913Z,4.20
2023-07-17T00:25:03.428Z,4.40
2023-07-17T00:27:30.678Z,4.73
2023-07-17T00:29:57.990Z,4.10
2023-07-17T00:32:25.282Z,4.10
2023-07-17T00:34:52.482Z,3.97
2023-07-17T00:37:19.916Z,4.53
2023-07-17T00:39:47.380Z,4.10
2023-07-17T00:42:14.596Z,4.27
2023-07-17T00:44:41.782Z,4.10
2023-07-17T00:47:09.815Z,4.23
2023-07-17T00:49:37.024Z,4.50
2023-07-17T00:52:05.472Z,4.70
2023-07-17T00:54:32.758Z,4.50
2023-07-17T00:57:01.597Z,4.20
2023-07-17T00:59:28.921Z,4.53
2023-07-17T01:01:56.214Z,4.70
2023-07-17T01:04:23.371Z,4.30
2023-07-17T01:06:50.509Z,4.70
2023-07-17T01:09:22.894Z,4.30
2023-07-17T01:11:50.142Z,4.17
2023-07-17T01:14:21.334Z,5.03
2023-07-17T01:16:49.911Z,4.37
2023-07-17T01:19:17.387Z,4.30
2023-07-17T01:22:13.714Z,4.83
2023-07-17T01:24:40.883Z,4.20
2023-07-17T01:27:10.643Z,4.27
2023-07-17T01:29:38.008Z,5.10
2023-07-17T01:32:05.296Z,4.63
2023-07-17T01:34:32.803Z,4.77
2023-07-17T01:36:59.940Z,4.57
2023-07-17T01:39:27.223Z,4.40
2023-07-17T01:41:54.385Z,4.63
2023-07-17T01:44:21.580Z,4.83
2023-07-17T01:46:48.784Z,4.20
2023-07-17T01:49:16.484Z,4.33
2023-07-17T01:51:43.612Z,4.47
2023-07-17T01:54:10.960Z,5.00
2023-07-17T01:56:38.130Z,4.40
2023-07-17T01:59:05.366Z,4.80
2023-07-17T02:01:34.722Z,4.47
2023-07-17T02:04:02.318Z,4.80
2023-07-17T02:06:29.940Z,4.97
2023-07-17T02:08:57.374Z,4.13
2023-07-17T02:11:28.343Z,4.77
2023-07-17T02:13:55.704Z,4.70
2023-07-17T02:16:24.611Z,5.20
2023-07-17T02:18:53.579Z,4.80
2023-07-17T02:21:20.756Z,4.63
2023-07-17T02:23:48.176Z,4.57
2023-07-17T02:26:15.427Z,4.57
2023-07-17T02:28:42.916Z,4.60
2023-07-17T02:31:10.090Z,4.37
2023-07-17T02:33:37.213Z,4.97
2023-07-17T02:36:04.998Z,4.87
2023-07-17T02:38:32.202Z,5.10
2023-07-17T02:40:59.397Z,5.00
2023-07-17T02:43:26.533Z,4.57
2023-07-17T02:45:53.748Z,4.27
2023-07-17T02:48:20.872Z,5.17
2023-07-17T02:50:51.457Z,4.67
2023-07-17T02:53:18.592Z,4.87
2023-07-17T02:55:45.800Z,5.40
2023-07-17T02:58:12.983Z,5.27
2023-07-17T03:00:40.132Z,5.03
2023-07-17T03:03:09.322Z,4.90
2023-07-17T03:05:36.987Z,4.83
2023-07-17T03:08:04.266Z,5.40
2023-07-17T03:10:31.978Z,5.33
2023-07-17T03:12:59.143Z,5.50
2023-07-17T03:15:26.312Z,5.30
2023-07-17T03:17:53.547Z,5.73
2023-07-17T03:20:20.818Z,5.53
2023-07-17T03:22:49.430Z,5.50
2023-07-17T03:25:16.679Z,5.73
2023-07-17T03:27:44.084Z,6.17
2023-07-17T03:30:11.541Z,5.80
2023-07-17T03:32:40.170Z,5.87
2023-07-17T03:35:07.640Z,5.93
2023-07-17T03:37:34.819Z,5.97
2023-07-17T03:40:02.044Z,5.67
2023-07-17T03:42:29.249Z,5.50
2023-07-17T03:44:56.471Z,5.53
2023-07-17T03:47:23.763Z,5.73
2023-07-17T03:49:50.979Z,5.37
2023-07-17T03:52:18.152Z,5.63
2023-07-17T03:54:45.334Z,5.90
2023-07-17T03:57:12.536Z,5.47
2023-07-17T03:59:50.284Z,5.70
2023-07-17T04:02:17.504Z,5.73
2023-07-17T04:04:44.699Z,5.47
2023-07-17T04:07:12.435Z,5.70
2023-07-17T04:09:39.699Z,5.40
2023-07-17T04:12:07.091Z,5.47
2023-07-17T04:14:34.940Z,5.33
2023-07-17T04:17:02.542Z,5.27
2023-07-17T04:19:29.696Z,5.03
2023-07-17T04:21:57.126Z,5.33
2023-07-17T04:24:27.474Z,5.57
2023-07-17T04:26:55.718Z,5.60
2023-07-17T04:29:25.942Z,5.30
2023-07-17T04:31:53.187Z,5.30
2023-07-17T04:34:20.720Z,4.93
2023-07-17T04:36:47.952Z,4.80
2023-07-17T04:39:15.116Z,4.33
2023-07-17T04:41:42.441Z,3.77
2023-07-17T04:44:09.695Z,4.30
2023-07-17T04:46:37.081Z,4.07
2023-07-17T04:49:04.903Z,3.77
2023-07-17T04:51:32.126Z,3.67
2023-07-17T04:53:59.412Z,3.60
2023-07-17T04:56:26.670Z,3.60
2023-07-17T04:58:54.152Z,3.90
2023-07-17T05:01:21.575Z,3.90
2023-07-17T05:03:49.359Z,3.57
2023-07-17T05:06:16.552Z,3.72
2023-07-17T05:08:43.704Z,3.60
2023-07-17T05:11:10.917Z,3.70
2023-07-17T05:13:38.070Z,3.50
2023-07-17T05:16:05.410Z,4.13
2023-07-17T05:18:32.610Z,3.65
2023-07-17T05:20:59.763Z,3.25
2023-07-17T05:23:26.952Z,3.60
2023-07-17T05:25:58.179Z,3.15
2023-07-17T05:28:25.964Z,3.40
2023-07-17T05:30:53.647Z,3.70
2023-07-17T05:33:21.042Z,3.30
2023-07-17T05:35:48.297Z,3.50
2023-07-17T05:38:15.438Z,3.25
2023-07-17T05:40:42.655Z,3.35
2023-07-17T05:43:10.123Z,3.13
2023-07-17T05:45:37.535Z,3.60
2023-07-17T05:48:04.916Z,3.30
2023-07-17T05:50:32.114Z,3.28
2023-07-17T05:52:59.322Z,3.20
2023-07-17T05:55:26.581Z,3.10
2023-07-17T05:57:53.857Z,3.55
2023-07-17T06:00:21.252Z,2.95
2023-07-17T06:02:48.675Z,3.45
2023-07-17T06:05:16.089Z,3.33
2023-07-17T06:07:43.516Z,3.30
2023-07-17T06:10:11.138Z,3.05
2023-07-17T06:12:38.284Z,3.30
2023-07-17T06:15:06.113Z,3.30
2023-07-17T06:17:33.271Z,2.92
2023-07-17T06:20:00.923Z,3.50
2023-07-17T06:22:28.175Z,3.30
2023-07-17T06:24:55.457Z,3.10
2023-07-17T06:27:22.594Z,3.55
2023-07-17T06:29:49.818Z,3.33
2023-07-17T06:32:17.073Z,3.03
2023-07-17T06:34:44.294Z,3.30
2023-07-17T06:37:11.458Z,3.10
2023-07-17T06:39:38.623Z,3.28
2023-07-17T06:42:06.570Z,3.58
2023-07-17T06:44:33.696Z,3.28
2023-07-17T06:47:00.844Z,3.45
2023-07-17T06:49:27.985Z,3.28
2023-07-17T06:51:55.157Z,3.85
2023-07-17T06:54:22.303Z,3.38
2023-07-17T06:56:49.478Z,3.70
2023-07-17T06:59:17.086Z,3.30
2023-07-17T07:01:44.351Z,3.40
2023-07-17T07:04:12.064Z,3.78
2023-07-17T07:06:39.271Z,3.53
2023-07-17T07:09:06.421Z,3.40
2023-07-17T07:11:33.603Z,3.35
2023-07-17T07:14:00.740Z,3.65
2023-07-17T07:16:28.353Z,3.22
2023-07-17T07:18:56.812Z,3.45
2023-07-17T07:21:24.020Z,3.22
2023-07-17T07:23:51.423Z,3.60
2023-07-17T07:26:18.871Z,3.63
2023-07-17T07:28:46.328Z,3.30
2023-07-17T07:31:13.585Z,3.30
2023-07-17T07:33:40.801Z,3.25
2023-07-17T07:36:08.104Z,3.58
2023-07-17T07:38:35.284Z,3.60
2023-07-17T07:41:02.458Z,3.38
2023-07-17T07:43:29.623Z,3.10
2023-07-17T07:45:56.784Z,3.10
2023-07-17T07:48:24.013Z,3.22
2023-07-17T07:50:51.150Z,3.67
2023-07-17T07:53:18.335Z,3.38
2023-07-17T07:55:45.516Z,3.30
2023-07-17T07:58:12.686Z,3.40
2023-07-17T08:00:39.815Z,3.38
2023-07-17T08:03:07.025Z,3.60
2023-07-17T08:05:34.187Z,3.40
2023-07-17T08:08:01.321Z,3.50
2023-07-17T08:10:28.471Z,3.20
2023-07-17T08:12:55.700Z,3.55
2023-07-17T08:15:22.891Z,3.58
2023-07-17T08:17:50.093Z,3.40
2023-07-17T08:20:17.360Z,3.70
2023-07-17T08:22:44.598Z,3.53
2023-07-17T08:25:11.847Z,3.30
2023-07-17T08:27:39.008Z,3.42
2023-07-17T08:30:06.435Z,3.75
2023-07-17T08:32:33.665Z,3.25
2023-07-17T08:35:00.828Z,3.95
2023-07-17T08:37:27.967Z,3.22
2023-07-17T08:39:55.134Z,3.53
2023-07-17T08:42:22.307Z,3.25
2023-07-17T08:44:50.571Z,3.70
2023-07-17T08:47:18.014Z,3.20
2023-07-17T08:49:46.399Z,3.63
2023-07-17T08:52:14.734Z,3.80
2023-07-17T08:54:41.915Z,3.40
2023-07-17T08:57:10.044Z,3.47
2023-07-17T08:59:37.624Z,3.65
2023-07-17T09:02:05.697Z,3.30
2023-07-17T09:04:34.231Z,3.13
2023-07-17T09:07:01.421Z,3.42
2023-07-17T09:09:28.585Z,3.03
2023-07-17T09:12:09.064Z,3.22
2023-07-17T09:14:36.854Z,3.65
2023-07-17T09:17:05.483Z,3.30
2023-07-17T09:19:33.268Z,3.22
2023-07-17T09:22:01.004Z,3.33
2023-07-17T09:24:28.959Z,3.25
2023-07-17T09:26:59.614Z,3.55
2023-07-17T09:29:26.879Z,3.35
2023-07-17T09:31:54.170Z,3.25
2023-07-17T09:34:21.327Z,3.25
2023-07-17T09:36:54.112Z,3.10
2023-07-17T09:39:23.635Z,3.25
2023-07-17T09:41:50.893Z,3.60
2023-07-17T09:44:19.570Z,3.78
2023-07-17T09:46:46.954Z,3.67
2023-07-17T09:49:14.162Z,3.38
2023-07-17T09:51:42.034Z,3.60
2023-07-17T09:54:09.600Z,3.50
2023-07-17T09:56:37.589Z,3.70
2023-07-17T09:59:19.266Z,3.72
2023-07-17T10:01:49.079Z,3.80
2023-07-17T10:04:27.780Z,3.58
2023-07-17T10:06:55.831Z,3.58
2023-07-17T10:09:23.102Z,4.05
2023-07-17T10:11:50.409Z,3.67
2023-07-17T10:14:18.112Z,3.67
2023-07-17T10:16:45.396Z,3.58
2023-07-17T10:19:12.655Z,3.88
2023-07-17T10:21:56.080Z,3.72
2023-07-17T10:24:26.677Z,3.67
2023-07-17T10:26:54.053Z,3.40
2023-07-17T10:29:34.163Z,3.38
2023-07-17T10:32:09.663Z,3.42
2023-07-17T10:34:50.868Z,3.47
2023-07-17T10:37:20.034Z,3.78
2023-07-17T10:39:47.180Z,4.47
2023-07-17T10:42:14.370Z,3.70
2023-07-17T10:44:42.944Z,4.20
2023-07-17T10:47:10.136Z,3.85
2023-07-17T10:49:37.354Z,3.60
2023-07-17T10:52:04.581Z,4.25
2023-07-17T10:54:31.723Z,3.55
2023-07-17T10:56:58.907Z,4.00
2023-07-17T10:59:27.842Z,4.10
2023-07-17T11:02:00.870Z,4.03
2023-07-17T11:04:28.504Z,3.75
2023-07-17T11:07:07.038Z,3.80
2023-07-17T11:09:34.191Z,4.35
2023-07-17T11:12:02.370Z,3.72
2023-07-17T11:14:30.506Z,3.67
2023-07-17T11:16:57.671Z,4.00
2023-07-17T11:19:24.851Z,3.72
2023-07-17T11:21:52.172Z,3.88
2023-07-17T11:24:19.380Z,3.97
2023-07-17T11:26:46.630Z,3.90
2023-07-17T11:29:13.797Z,3.65
2023-07-17T11:31:40.953Z,3.63
2023-07-17T11:34:11.183Z,3.67
2023-07-17T11:36:42.799Z,3.90
2023-07-17T11:39:11.442Z,3.78
2023-07-17T11:41:48.752Z,3.72
2023-07-17T11:44:17.047Z,3.72
2023-07-17T11:46:44.888Z,3.58
2023-07-17T11:49:12.148Z,3.90
2023-07-17T11:51:42.700Z,4.07
2023-07-17T11:54:10.315Z,3.97
2023-07-17T11:56:39.024Z,4.00
2023-07-17T11:59:07.468Z,3.83
2023-07-17T12:01:35.258Z,3.80
2023-07-17T12:04:18.952Z,4.05
2023-07-17T12:06:46.283Z,4.00
2023-07-17T12:09:13.720Z,3.70
2023-07-17T12:11:41.496Z,3.70
2023-07-17T12:14:08.623Z,3.67
2023-07-17T12:16:35.877Z,3.90
2023-07-17T12:19:04.393Z,3.97
2023-07-17T12:21:33.264Z,3.63
2023-07-17T12:24:02.572Z,3.50
2023-07-17T12:26:29.779Z,3.80
2023-07-17T12:28:57.169Z,3.55
2023-07-17T12:31:24.386Z,3.20
2023-07-17T12:33:51.521Z,3.67
2023-07-17T12:36:18.691Z,3.50
2023-07-17T12:38:45.879Z,3.50
2023-07-17T12:41:13.523Z,3.63
2023-07-17T12:43:40.648Z,3.55
2023-07-17T12:46:07.841Z,3.15
2023-07-17T12:48:35.087Z,3.80
2023-07-17T12:51:02.499Z,3.72
2023-07-17T12:53:29.622Z,3.80
2023-07-17T12:56:14.749Z,3.53
2023-07-17T12:58:43.887Z,3.60
2023-07-17T13:01:11.158Z,3.03
2023-07-17T13:03:38.726Z,3.38
2023-07-17T13:06:06.040Z,3.17
2023-07-17T13:08:33.194Z,3.63
2023-07-17T13:11:00.367Z,3.28
2023-07-17T13:13:27.487Z,3.78
2023-07-17T13:15:54.809Z,3.70
2023-07-17T13:18:22.009Z,3.45
2023-07-17T13:20:49.188Z,3.00
2023-07-17T13:23:16.399Z,3.47
2023-07-17T13:25:43.536Z,3.15
2023-07-17T13:28:10.683Z,3.40
2023-07-17T13:30:37.957Z,3.75
2023-07-17T13:33:05.215Z,4.10
2023-07-17T13:35:32.358Z,3.50
2023-07-17T13:37:59.579Z,3.72
2023-07-17T13:40:26.871Z,3.72
2023-07-17T13:42:54.030Z,3.40
2023-07-17T13:45:22.478Z,3.53
2023-07-17T13:47:50.127Z,3.50
2023-07-17T13:50:17.358Z,3.45
2023-07-17T13:52:44.555Z,3.47
2023-07-17T13:55:12.252Z,3.47
2023-07-17T13:57:39.430Z,3.22
2023-07-17T14:00:06.932Z,3.28
2023-07-17T14:02:34.427Z,3.72
2023-07-17T14:05:01.695Z,3.33
2023-07-17T14:07:28.834Z,3.78
2023-07-17T14:09:55.933Z,3.67
2023-07-17T14:12:23.144Z,3.80
2023-07-17T14:14:50.294Z,3.60
2023-07-17T14:17:17.490Z,3.55
2023-07-17T14:19:44.677Z,2.92
2023-07-17T14:22:11.812Z,3.35
2023-07-17T14:24:38.995Z,3.83
2023-07-17T14:27:06.338Z,3.17
2023-07-17T14:29:33.493Z,3.70
2023-07-17T14:32:00.720Z,3.60
2023-07-17T14:34:28.070Z,3.17
2023-07-17T14:36:55.233Z,3.30
2023-07-17T14:39:22.367Z,2.92
2023-07-17T14:41:49.536Z,3.10
2023-07-17T14:44:16.765Z,3.08
2023-07-17T14:46:44.977Z,2.78
2023-07-17T14:49:12.178Z,3.20
2023-07-17T14:51:40.584Z,3.00
2023-07-17T14:54:07.721Z,3.00
2023-07-17T14:56:34.887Z,2.60
2023-07-17T14:59:02.038Z,2.75
2023-07-17T15:01:29.251Z,2.65
2023-07-17T15:03:56.453Z,2.65
2023-07-17T15:06:23.730Z,2.90
2023-07-17T15:08:50.859Z,3.03
2023-07-17T15:11:18.105Z,2.50
2023-07-17T15:13:46.398Z,2.67
2023-07-17T15:16:13.591Z,2.65
2023-07-17T15:18:42.880Z,2.45
2023-07-17T15:21:11.557Z,2.50
2023-07-17T15:23:38.713Z,2.30
2023-07-17T15:26:05.874Z,2.28
2023-07-17T15:28:33.054Z,2.40
2023-07-17T15:31:00.322Z,2.58
2023-07-17T15:33:28.694Z,2.60
2023-07-17T15:35:55.900Z,2.20
2023-07-17T15:38:23.198Z,2.50
2023-07-17T15:40:50.312Z,2.33
2023-07-17T15:43:17.522Z,2.30
2023-07-17T15:45:44.657Z,2.30
2023-07-17T15:48:13.378Z,2.50
2023-07-17T15:50:40.924Z,2.63
2023-07-17T15:53:08.126Z,2.67
2023-07-17T15:55:35.253Z,2.20
2023-07-17T15:58:02.404Z,2.38
2023-07-17T16:00:30.034Z,2.25
2023-07-17T16:02:57.231Z,2.55
2023-07-17T16:05:24.452Z,2.20
2023-07-17T16:07:51.658Z,2.53
2023-07-17T16:10:18.801Z,2.13
2023-07-17T16:12:45.938Z,2.47
2023-07-17T16:15:13.186Z,2.85
2023-07-17T16:17:40.418Z,2.30
2023-07-17T16:20:07.890Z,2.30
2023-07-17T16:22:35.150Z,2.45
2023-07-17T16:25:02.337Z,2.80
2023-07-17T16:27:29.733Z,2.50
2023-07-17T16:29:56.872Z,2.50
2023-07-17T16:32:24.060Z,2.53
2023-07-17T16:34:51.277Z,2.70
2023-07-17T16:37:18.459Z,2.35
2023-07-17T16:39:45.679Z,2.72
2023-07-17T16:42:12.846Z,2.67
2023-07-17T16:44:41.650Z,2.28
2023-07-17T16:47:09.749Z,2.20
2023-07-17T16:49:37.050Z,2.45
2023-07-17T16:52:04.692Z,2.40
2023-07-17T16:54:31.873Z,2.25
2023-07-17T16:56:59.016Z,2.28
2023-07-17T16:59:27.866Z,2.42
2023-07-17T17:01:55.140Z,2.40
2023-07-17T17:04:23.067Z,2.22
2023-07-17T17:06:50.346Z,2.30
2023-07-17T17:09:19.905Z,2.38
2023-07-17T17:11:47.789Z,2.22
2023-07-17T17:14:15.533Z,2.42
2023-07-17T17:16:42.712Z,2.25
2023-07-17T17:19:09.889Z,2.50
2023-07-17T17:21:37.114Z,2.45
2023-07-17T17:24:04.383Z,2.38
2023-07-17T17:26:31.612Z,2.22
2023-07-17T17:28:58.789Z,2.00
2023-07-17T17:31:29.014Z,2.58
2023-07-17T17:33:56.424Z,2.30
2023-07-17T17:36:23.767Z,2.35
2023-07-17T17:38:51.036Z,2.33
2023-07-17T17:41:18.537Z,2.22
2023-07-17T17:43:45.783Z,2.17
2023-07-17T17:46:13.014Z,2.20
2023-07-17T17:48:40.656Z,2.33
2023-07-17T17:51:08.016Z,2.75
2023-07-17T17:53:35.201Z,2.30
2023-07-17T17:56:02.398Z,2.38
2023-07-17T17:58:30.783Z,2.15
2023-07-17T18:00:58.052Z,2.20
2023-07-17T18:03:25.728Z,2.33
2023-07-17T18:05:53.180Z,2.20
2023-07-17T18:08:20.319Z,2.30
2023-07-17T18:10:47.486Z,2.42
2023-07-17T18:13:14.633Z,2.20
2023-07-17T18:15:41.815Z,2.13
2023-07-17T18:18:09.789Z,2.25
2023-07-17T18:20:37.008Z,2.13
2023-07-17T18:23:04.217Z,2.72
2023-07-17T18:25:31.413Z,2.55
2023-07-17T18:27:58.854Z,2.40
2023-07-17T18:30:25.975Z,2.13
2023-07-17T18:32:53.181Z,2.55
2023-07-17T18:35:20.342Z,2.63
2023-07-17T18:37:47.670Z,3.17
2023-07-17T18:40:15.013Z,3.28
2023-07-17T18:42:42.185Z,2.85
2023-07-17T18:45:10.210Z,2.50
2023-07-17T18:47:37.498Z,2.70
2023-07-17T18:50:04.872Z,2.40
2023-07-17T18:52:32.398Z,2.13
2023-07-17T18:54:59.615Z,2.90
2023-07-17T18:57:27.000Z,2.83
2023-07-17T18:59:54.124Z,2.60
2023-07-17T19:02:22.193Z,2.55
2023-07-17T19:04:49.345Z,3.28
2023-07-17T19:07:16.677Z,2.80
2023-07-17T19:09:43.820Z,2.97
2023-07-17T19:12:11.620Z,3.15
2023-07-17T19:14:38.788Z,2.50
2023-07-17T19:17:06.107Z,2.60
2023-07-17T19:19:33.292Z,2.50
2023-07-17T19:22:01.360Z,2.70
2023-07-17T19:24:28.814Z,2.50
2023-07-17T19:26:56.015Z,2.60
2023-07-17T19:29:23.177Z,2.90
2023-07-17T19:31:50.386Z,2.65
2023-07-17T19:34:17.529Z,2.83
2023-07-17T19:36:44.840Z,2.38
2023-07-17T19:39:13.009Z,2.95
2023-07-17T19:41:41.480Z,2.42
2023-07-17T19:44:10.722Z,2.47
2023-07-17T19:46:37.909Z,2.70
2023-07-17T19:49:06.093Z,2.70
2023-07-17T19:51:33.261Z,2.92
2023-07-17T19:54:00.529Z,3.00
2023-07-17T19:56:27.676Z,3.10
2023-07-17T19:58:54.862Z,3.00
2023-07-17T20:01:23.378Z,2.88
2023-07-17T20:03:51.202Z,3.28
2023-07-17T20:06:19.374Z,2.67
2023-07-17T20:08:47.326Z,2.83
2023-07-17T20:11:14.503Z,2.67
2023-07-17T20:13:41.697Z,2.53
2023-07-17T20:16:08.983Z,2.85
2023-07-17T20:18:36.123Z,2.33
2023-07-17T20:21:03.411Z,2.28
2023-07-17T20:23:30.548Z,2.30
2023-07-17T20:25:59.146Z,2.50
2023-07-17T20:28:26.298Z,2.25
2023-07-17T20:30:53.498Z,2.25
2023-07-17T20:33:20.689Z,2.20
2023-07-17T20:35:47.849Z,2.42
2023-07-17T20:38:14.994Z,2.42
2023-07-17T20:40:42.152Z,2.47
2023-07-17T20:43:09.397Z,2.55
2023-07-17T20:45:46.693Z,2.53
2023-07-17T20:48:14.040Z,2.47
2023-07-17T20:50:41.220Z,2.60
2023-07-17T20:53:08.349Z,3.03
2023-07-17T20:55:35.538Z,2.60
2023-07-17T20:58:02.688Z,2.37
2023-07-17T21:00:29.848Z,2.57
2023-07-17T21:02:57.049Z,2.60
2023-07-17T21:05:25.412Z,2.38
2023-07-17T21:07:52.600Z,2.60
2023-07-17T21:10:19.781Z,2.20
2023-07-17T21:12:46.971Z,2.55
2023-07-17T21:15:14.145Z,2.27
2023-07-17T21:17:41.537Z,2.47
2023-07-17T21:20:09.102Z,2.40
2023-07-17T21:22:36.347Z,2.30
2023-07-17T21:25:03.729Z,2.60
2023-07-17T21:27:31.406Z,2.13
2023-07-17T21:29:58.801Z,2.50
2023-07-17T21:32:26.310Z,2.67
2023-07-17T21:34:53.524Z,2.67
2023-07-17T21:37:20.697Z,2.60
2023-07-17T21:39:47.862Z,2.43
2023-07-17T21:42:15.179Z,2.60
2023-07-17T21:44:42.383Z,2.43
2023-07-17T21:47:09.509Z,2.50
2023-07-17T21:49:36.663Z,2.40
2023-07-17T21:52:03.884Z,2.50
2023-07-17T21:54:31.038Z,2.57
2023-07-17T21:56:59.233Z,2.23
2023-07-17T21:59:26.407Z,2.23
2023-07-17T22:01:53.560Z,2.37
2023-07-17T22:04:21.073Z,2.50
2023-07-17T22:06:48.215Z,2.23
2023-07-17T22:09:16.548Z,2.30
2023-07-17T22:11:43.700Z,2.27
2023-07-17T22:14:11.022Z,2.50
2023-07-17T22:16:38.236Z,2.33
2023-07-17T22:19:05.916Z,2.57
2023-07-17T22:21:33.082Z,2.53
2023-07-17T22:24:00.300Z,2.40
2023-07-17T22:26:27.445Z,2.63
2023-07-17T22:28:56.926Z,2.50
2023-07-17T22:31:24.363Z,2.70
2023-07-17T22:33:51.650Z,2.40
2023-07-17T22:36:18.781Z,3.10
2023-07-17T22:38:45.989Z,2.47
2023-07-17T22:41:13.146Z,2.93
2023-07-17T22:43:40.313Z,2.60
2023-07-17T22:46:07.516Z,2.47
2023-07-17T22:48:34.720Z,2.50
2023-07-17T22:51:01.866Z,2.70
2023-07-17T22:53:29.124Z,2.53
2023-07-17T22:55:56.487Z,2.50
2023-07-17T22:58:24.153Z,2.67
2023-07-17T23:00:51.350Z,2.57
2023-07-17T23:03:18.488Z,2.80
2023-07-17T23:05:45.636Z,2.70
2023-07-17T23:08:12.824Z,2.70
2023-07-17T23:10:39.959Z,2.83
2023-07-17T23:13:07.259Z,2.87
2023-07-17T23:15:35.588Z,2.90
2023-07-17T23:18:03.168Z,3.00
2023-07-17T23:20:30.357Z,2.70
2023-07-17T23:22:58.388Z,2.67
2023-07-17T23:25:25.659Z,2.93
2023-07-17T23:27:52.814Z,2.60
2023-07-17T23:30:20.155Z,3.00
2023-07-17T23:32:49.253Z,2.73
2023-07-17T23:35:17.242Z,3.07
2023-07-17T23:37:44.382Z,2.70
2023-07-17T23:40:11.726Z,2.90
2023-07-17T23:42:41.085Z,3.47
2023-07-17T23:45:13.059Z,3.00
2023-07-17T23:47:40.287Z,3.37
2023-07-17T23:50:07.775Z,3.10
2023-07-17T23:52:34.958Z,3.63
2023-07-17T23:55:02.108Z,2.97
2023-07-17T23:57:29.725Z,3.40
2023-07-17T23:59:57.270Z,3.03
